sensor_id;sensor_type;location;lat;lon;timestamp;temperature;humidity
33594;DHT22;19920;52.242;20.940;2023-08-17T00:00:26;25.50;99.90
33594;DHT22;19920;52.242;20.940;2023-08-17T00:02:52;25.50;99.90
33594;DHT22;19920;52.242;20.940;2023-08-17T00:05:17;25.50;99.90
33594;DHT22;19920;52.242;20.940;2023-08-17T00:07:43;25.50;99.90
33594;DHT22;19920;52.242;20.940;2023-08-17T00:10:09;25.50;99.90
33594;DHT22;19920;52.242;20.940;2023-08-17T00:12:34;25.50;99.90
33594;DHT22;19920;52.242;20.940;2023-08-17T00:15:00;25.50;99.90
33594;DHT22;19920;52.242;20.940;2023-08-17T00:17:26;25.50;99.90
33594;DHT22;19920;52.242;20.940;2023-08-17T00:19:51;25.50;99.90
33594;DHT22;19920;52.242;20.940;2023-08-17T00:22:17;25.50;99.90
33594;DHT22;19920;52.242;20.940;2023-08-17T00:24:42;25.50;99.90
33594;DHT22;19920;52.242;20.940;2023-08-17T00:27:10;25.50;99.90
33594;DHT22;19920;52.242;20.940;2023-08-17T00:29:36;25.50;99.90
33594;DHT22;19920;52.242;20.940;2023-08-17T00:32:02;25.50;99.90
33594;DHT22;19920;52.242;20.940;2023-08-17T00:34:28;25.50;99.90
33594;DHT22;19920;52.242;20.940;2023-08-17T00:36:54;25.50;99.90
33594;DHT22;19920;52.242;20.940;2023-08-17T00:39:19;25.40;99.90
33594;DHT22;19920;52.242;20.940;2023-08-17T00:41:45;25.40;99.90
33594;DHT22;19920;52.242;20.940;2023-08-17T00:44:11;25.40;99.90
33594;DHT22;19920;52.242;20.940;2023-08-17T00:46:38;25.40;99.90
33594;DHT22;19920;52.242;20.940;2023-08-17T00:49:03;25.30;99.90
33594;DHT22;19920;52.242;20.940;2023-08-17T00:51:30;25.30;99.90
33594;DHT22;19920;52.242;20.940;2023-08-17T00:53:58;25.40;99.90
33594;DHT22;19920;52.242;20.940;2023-08-17T00:56:24;25.30;99.90
33594;DHT22;19920;52.242;20.940;2023-08-17T00:58:51;25.30;99.90
33594;DHT22;19920;52.242;20.940;2023-08-17T01:01:16;25.30;99.90
33594;DHT22;19920;52.242;20.940;2023-08-17T01:03:42;25.30;99.90
33594;DHT22;19920;52.242;20.940;2023-08-17T01:06:09;25.30;99.90
33594;DHT22;19920;52.242;20.940;2023-08-17T01:08:35;25.30;99.90
33594;DHT22;19920;52.242;20.940;2023-08-17T01:14:02;25.30;99.90
33594;DHT22;19920;52.242;20.940;2023-08-17T01:16:51;25.30;99.90
33594;DHT22;19920;52.242;20.940;2023-08-17T01:19:25;25.30;99.90
33594;DHT22;19920;52.242;20.940;2023-08-17T01:21:56;25.20;99.90
33594;DHT22;19920;52.242;20.940;2023-08-17T01:24:22;25.20;99.90
33594;DHT22;19920;52.242;20.940;2023-08-17T01:26:48;25.20;99.90
33594;DHT22;19920;52.242;20.940;2023-08-17T01:29:13;25.20;99.90
33594;DHT22;19920;52.242;20.940;2023-08-17T01:32:02;25.20;99.90
33594;DHT22;19920;52.242;20.940;2023-08-17T01:34:33;25.20;99.90
33594;DHT22;19920;52.242;20.940;2023-08-17T01:37:01;25.10;99.90
33594;DHT22;19920;52.242;20.940;2023-08-17T01:39:37;25.00;99.90
33594;DHT22;19920;52.242;20.940;2023-08-17T01:42:03;25.00;99.90
33594;DHT22;19920;52.242;20.940;2023-08-17T01:44:30;25.00;99.90
33594;DHT22;19920;52.242;20.940;2023-08-17T01:46:56;25.00;99.90
33594;DHT22;19920;52.242;20.940;2023-08-17T01:49:21;25.00;99.90
33594;DHT22;19920;52.242;20.940;2023-08-17T01:51:47;24.90;99.90
33594;DHT22;19920;52.242;20.940;2023-08-17T01:54:13;24.90;99.90
33594;DHT22;19920;52.242;20.940;2023-08-17T01:56:38;24.90;99.90
33594;DHT22;19920;52.242;20.940;2023-08-17T01:59:04;24.80;99.90
33594;DHT22;19920;52.242;20.940;2023-08-17T02:01:29;24.80;99.90
33594;DHT22;19920;52.242;20.940;2023-08-17T02:03:55;24.80;99.90
33594;DHT22;19920;52.242;20.940;2023-08-17T02:06:21;24.80;99.90
33594;DHT22;19920;52.242;20.940;2023-08-17T02:08:46;24.80;99.90
33594;DHT22;19920;52.242;20.940;2023-08-17T02:11:12;24.80;99.90
33594;DHT22;19920;52.242;20.940;2023-08-17T02:13:37;24.80;99.90
33594;DHT22;19920;52.242;20.940;2023-08-17T02:16:06;24.80;99.90
33594;DHT22;19920;52.242;20.940;2023-08-17T02:18:31;24.80;99.90
33594;DHT22;19920;52.242;20.940;2023-08-17T02:20:58;24.80;99.90
33594;DHT22;19920;52.242;20.940;2023-08-17T02:23:24;24.80;99.90
33594;DHT22;19920;52.242;20.940;2023-08-17T02:25:50;24.80;99.90
33594;DHT22;19920;52.242;20.940;2023-08-17T02:28:15;24.70;99.90
33594;DHT22;19920;52.242;20.940;2023-08-17T02:30:41;24.70;99.90
33594;DHT22;19920;52.242;20.940;2023-08-17T02:33:07;24.70;99.90
33594;DHT22;19920;52.242;20.940;2023-08-17T02:35:33;24.60;99.90
33594;DHT22;19920;52.242;20.940;2023-08-17T02:37:58;24.60;99.90
33594;DHT22;19920;52.242;20.940;2023-08-17T02:40:24;24.70;99.90
33594;DHT22;19920;52.242;20.940;2023-08-17T02:42:49;24.70;99.90
33594;DHT22;19920;52.242;20.940;2023-08-17T02:45:15;24.70;99.90
33594;DHT22;19920;52.242;20.940;2023-08-17T02:47:42;24.70;99.90
33594;DHT22;19920;52.242;20.940;2023-08-17T02:50:07;24.70;99.90
33594;DHT22;19920;52.242;20.940;2023-08-17T02:52:33;24.60;99.90
33594;DHT22;19920;52.242;20.940;2023-08-17T02:54:59;24.60;99.90
33594;DHT22;19920;52.242;20.940;2023-08-17T02:57:24;24.60;99.90
33594;DHT22;19920;52.242;20.940;2023-08-17T02:59:50;24.60;99.90
33594;DHT22;19920;52.242;20.940;2023-08-17T03:02:16;24.60;99.90
33594;DHT22;19920;52.242;20.940;2023-08-17T03:04:41;24.60;99.90
33594;DHT22;19920;52.242;20.940;2023-08-17T03:07:07;24.50;99.90
33594;DHT22;19920;52.242;20.940;2023-08-17T03:09:33;24.50;99.90
33594;DHT22;19920;52.242;20.940;2023-08-17T03:11:58;24.50;99.90
33594;DHT22;19920;52.242;20.940;2023-08-17T03:14:24;24.50;99.90
33594;DHT22;19920;52.242;20.940;2023-08-17T03:16:50;24.50;99.90
33594;DHT22;19920;52.242;20.940;2023-08-17T03:19:15;24.50;99.90
33594;DHT22;19920;52.242;20.940;2023-08-17T03:21:41;24.50;99.90
33594;DHT22;19920;52.242;20.940;2023-08-17T03:24:06;24.50;99.90
33594;DHT22;19920;52.242;20.940;2023-08-17T03:26:32;24.50;99.90
33594;DHT22;19920;52.242;20.940;2023-08-17T03:28:58;24.50;99.90
33594;DHT22;19920;52.242;20.940;2023-08-17T03:31:23;24.50;99.90
33594;DHT22;19920;52.242;20.940;2023-08-17T03:33:49;24.50;99.90
33594;DHT22;19920;52.242;20.940;2023-08-17T03:36:15;24.40;99.90
33594;DHT22;19920;52.242;20.940;2023-08-17T03:38:40;24.40;99.90
33594;DHT22;19920;52.242;20.940;2023-08-17T03:41:06;24.50;99.90
33594;DHT22;19920;52.242;20.940;2023-08-17T03:43:32;24.50;99.90
33594;DHT22;19920;52.242;20.940;2023-08-17T03:45:58;24.50;99.90
33594;DHT22;19920;52.242;20.940;2023-08-17T03:48:24;24.40;99.90
33594;DHT22;19920;52.242;20.940;2023-08-17T03:50:54;24.50;99.90
33594;DHT22;19920;52.242;20.940;2023-08-17T03:53:19;24.50;99.90
33594;DHT22;19920;52.242;20.940;2023-08-17T03:55:49;24.50;99.90
33594;DHT22;19920;52.242;20.940;2023-08-17T03:58:15;24.50;99.90
33594;DHT22;19920;52.242;20.940;2023-08-17T04:00:41;24.50;99.90
33594;DHT22;19920;52.242;20.940;2023-08-17T04:03:07;24.60;99.90
33594;DHT22;19920;52.242;20.940;2023-08-17T04:05:33;24.60;99.90
33594;DHT22;19920;52.242;20.940;2023-08-17T04:08:00;24.60;99.90
33594;DHT22;19920;52.242;20.940;2023-08-17T04:10:28;24.60;99.90
33594;DHT22;19920;52.242;20.940;2023-08-17T04:12:53;24.60;99.90
33594;DHT22;19920;52.242;20.940;2023-08-17T04:15:19;24.70;99.90
33594;DHT22;19920;52.242;20.940;2023-08-17T04:17:45;24.70;99.90
33594;DHT22;19920;52.242;20.940;2023-08-17T04:20:10;24.70;99.90
33594;DHT22;19920;52.242;20.940;2023-08-17T04:22:36;24.70;99.90
33594;DHT22;19920;52.242;20.940;2023-08-17T04:25:02;24.70;99.90
33594;DHT22;19920;52.242;20.940;2023-08-17T04:27:27;24.80;99.90
33594;DHT22;19920;52.242;20.940;2023-08-17T04:29:53;24.80;99.90
33594;DHT22;19920;52.242;20.940;2023-08-17T04:32:19;24.80;99.90
33594;DHT22;19920;52.242;20.940;2023-08-17T04:34:45;24.90;99.90
33594;DHT22;19920;52.242;20.940;2023-08-17T04:37:11;24.90;99.90
33594;DHT22;19920;52.242;20.940;2023-08-17T04:39:37;24.90;99.90
33594;DHT22;19920;52.242;20.940;2023-08-17T04:42:03;24.90;99.90
33594;DHT22;19920;52.242;20.940;2023-08-17T04:44:29;25.00;99.90
33594;DHT22;19920;52.242;20.940;2023-08-17T04:46:54;25.00;99.90
33594;DHT22;19920;52.242;20.940;2023-08-17T04:49:20;25.10;99.90
33594;DHT22;19920;52.242;20.940;2023-08-17T04:51:45;25.10;99.90
33594;DHT22;19920;52.242;20.940;2023-08-17T04:54:11;25.20;99.90
33594;DHT22;19920;52.242;20.940;2023-08-17T04:56:37;25.30;99.90
33594;DHT22;19920;52.242;20.940;2023-08-17T04:59:02;25.40;99.90
33594;DHT22;19920;52.242;20.940;2023-08-17T05:01:28;25.40;99.90
33594;DHT22;19920;52.242;20.940;2023-08-17T05:03:53;25.40;99.90
33594;DHT22;19920;52.242;20.940;2023-08-17T05:06:20;25.40;99.90
33594;DHT22;19920;52.242;20.940;2023-08-17T05:08:45;25.50;99.90
33594;DHT22;19920;52.242;20.940;2023-08-17T05:11:11;25.60;99.90
33594;DHT22;19920;52.242;20.940;2023-08-17T05:13:36;25.60;99.90
33594;DHT22;19920;52.242;20.940;2023-08-17T05:16:02;25.60;99.90
33594;DHT22;19920;52.242;20.940;2023-08-17T05:18:27;25.60;99.90
33594;DHT22;19920;52.242;20.940;2023-08-17T05:20:54;25.60;99.90
33594;DHT22;19920;52.242;20.940;2023-08-17T05:23:20;25.60;99.90
33594;DHT22;19920;52.242;20.940;2023-08-17T05:25:48;25.60;99.90
33594;DHT22;19920;52.242;20.940;2023-08-17T05:28:14;25.60;99.90
33594;DHT22;19920;52.242;20.940;2023-08-17T05:30:40;25.60;99.90
33594;DHT22;19920;52.242;20.940;2023-08-17T05:33:05;25.60;99.90
33594;DHT22;19920;52.242;20.940;2023-08-17T05:35:32;25.60;99.90
33594;DHT22;19920;52.242;20.940;2023-08-17T05:37:57;25.60;99.90
33594;DHT22;19920;52.242;20.940;2023-08-17T05:40:23;25.60;99.90
33594;DHT22;19920;52.242;20.940;2023-08-17T05:42:48;25.60;99.90
33594;DHT22;19920;52.242;20.940;2023-08-17T05:45:14;25.60;99.90
33594;DHT22;19920;52.242;20.940;2023-08-17T05:47:40;25.60;99.90
33594;DHT22;19920;52.242;20.940;2023-08-17T05:50:06;25.70;99.90
33594;DHT22;19920;52.242;20.940;2023-08-17T05:52:31;25.70;99.90
33594;DHT22;19920;52.242;20.940;2023-08-17T05:54:57;25.80;99.90
33594;DHT22;19920;52.242;20.940;2023-08-17T05:57:22;25.90;99.90
33594;DHT22;19920;52.242;20.940;2023-08-17T05:59:49;26.00;99.90
33594;DHT22;19920;52.242;20.940;2023-08-17T06:02:14;26.10;99.90
33594;DHT22;19920;52.242;20.940;2023-08-17T06:04:40;26.20;99.90
33594;DHT22;19920;52.242;20.940;2023-08-17T06:07:06;26.30;99.90
33594;DHT22;19920;52.242;20.940;2023-08-17T06:09:32;26.30;99.90
33594;DHT22;19920;52.242;20.940;2023-08-17T06:11:57;26.30;99.90
33594;DHT22;19920;52.242;20.940;2023-08-17T06:14:23;26.40;99.90
33594;DHT22;19920;52.242;20.940;2023-08-17T06:16:49;26.40;99.90
33594;DHT22;19920;52.242;20.940;2023-08-17T06:19:14;26.50;99.90
33594;DHT22;19920;52.242;20.940;2023-08-17T06:21:40;26.50;99.90
33594;DHT22;19920;52.242;20.940;2023-08-17T06:24:05;26.60;99.90
33594;DHT22;19920;52.242;20.940;2023-08-17T06:26:31;26.60;99.90
33594;DHT22;19920;52.242;20.940;2023-08-17T06:28:57;26.70;99.90
33594;DHT22;19920;52.242;20.940;2023-08-17T06:31:22;26.70;99.90
33594;DHT22;19920;52.242;20.940;2023-08-17T06:33:55;26.80;99.90
33594;DHT22;19920;52.242;20.940;2023-08-17T06:36:21;26.80;99.90
33594;DHT22;19920;52.242;20.940;2023-08-17T06:38:47;26.90;99.90
33594;DHT22;19920;52.242;20.940;2023-08-17T06:41:15;26.90;99.90
33594;DHT22;19920;52.242;20.940;2023-08-17T06:43:41;27.00;99.90
33594;DHT22;19920;52.242;20.940;2023-08-17T06:46:07;27.00;99.90
33594;DHT22;19920;52.242;20.940;2023-08-17T06:48:33;27.00;99.90
33594;DHT22;19920;52.242;20.940;2023-08-17T06:50:58;27.10;99.90
33594;DHT22;19920;52.242;20.940;2023-08-17T06:53:24;27.10;99.90
33594;DHT22;19920;52.242;20.940;2023-08-17T06:55:50;27.10;99.90
33594;DHT22;19920;52.242;20.940;2023-08-17T06:58:15;27.30;99.90
33594;DHT22;19920;52.242;20.940;2023-08-17T07:00:41;27.30;99.90
33594;DHT22;19920;52.242;20.940;2023-08-17T07:03:09;27.30;99.90
33594;DHT22;19920;52.242;20.940;2023-08-17T07:05:34;27.40;99.90
33594;DHT22;19920;52.242;20.940;2023-08-17T07:08:00;27.40;99.90
33594;DHT22;19920;52.242;20.940;2023-08-17T07:10:27;27.40;99.90
33594;DHT22;19920;52.242;20.940;2023-08-17T07:12:52;27.70;99.90
33594;DHT22;19920;52.242;20.940;2023-08-17T07:15:18;27.70;99.90
33594;DHT22;19920;52.242;20.940;2023-08-17T07:17:44;27.90;99.90
33594;DHT22;19920;52.242;20.940;2023-08-17T07:20:10;27.80;99.90
33594;DHT22;19920;52.242;20.940;2023-08-17T07:22:37;27.60;99.90
33594;DHT22;19920;52.242;20.940;2023-08-17T07:25:03;27.60;99.90
33594;DHT22;19920;52.242;20.940;2023-08-17T07:27:29;27.50;99.90
33594;DHT22;19920;52.242;20.940;2023-08-17T07:29:55;27.70;99.90
33594;DHT22;19920;52.242;20.940;2023-08-17T07:32:21;27.70;99.90
33594;DHT22;19920;52.242;20.940;2023-08-17T07:34:47;27.70;99.90
33594;DHT22;19920;52.242;20.940;2023-08-17T07:37:12;27.50;99.90
33594;DHT22;19920;52.242;20.940;2023-08-17T07:39:38;27.40;99.90
33594;DHT22;19920;52.242;20.940;2023-08-17T07:42:04;27.40;99.90
33594;DHT22;19920;52.242;20.940;2023-08-17T07:44:29;27.50;99.90
33594;DHT22;19920;52.242;20.940;2023-08-17T07:46:57;27.50;99.90
33594;DHT22;19920;52.242;20.940;2023-08-17T07:49:23;27.50;99.90
33594;DHT22;19920;52.242;20.940;2023-08-17T07:51:49;27.60;99.90
33594;DHT22;19920;52.242;20.940;2023-08-17T07:54:15;27.60;99.90
33594;DHT22;19920;52.242;20.940;2023-08-17T07:56:40;27.70;99.90
33594;DHT22;19920;52.242;20.940;2023-08-17T07:59:06;27.80;99.90
33594;DHT22;19920;52.242;20.940;2023-08-17T08:01:32;28.00;99.90
33594;DHT22;19920;52.242;20.940;2023-08-17T08:03:57;28.10;99.90
33594;DHT22;19920;52.242;20.940;2023-08-17T08:06:23;28.30;99.90
33594;DHT22;19920;52.242;20.940;2023-08-17T08:08:49;28.50;99.90
33594;DHT22;19920;52.242;20.940;2023-08-17T08:11:14;28.70;99.90
33594;DHT22;19920;52.242;20.940;2023-08-17T08:13:40;28.80;99.90
33594;DHT22;19920;52.242;20.940;2023-08-17T08:16:06;28.90;99.90
33594;DHT22;19920;52.242;20.940;2023-08-17T08:18:31;29.00;99.90
33594;DHT22;19920;52.242;20.940;2023-08-17T08:20:57;29.00;99.90
33594;DHT22;19920;52.242;20.940;2023-08-17T08:23:22;29.10;99.90
33594;DHT22;19920;52.242;20.940;2023-08-17T08:25:48;29.10;99.90
33594;DHT22;19920;52.242;20.940;2023-08-17T08:28:13;29.10;99.90
33594;DHT22;19920;52.242;20.940;2023-08-17T08:30:39;29.10;99.90
33594;DHT22;19920;52.242;20.940;2023-08-17T08:33:05;29.30;99.90
33594;DHT22;19920;52.242;20.940;2023-08-17T08:35:30;29.10;99.90
33594;DHT22;19920;52.242;20.940;2023-08-17T08:37:58;29.10;99.90
33594;DHT22;19920;52.242;20.940;2023-08-17T08:40:28;29.40;99.90
33594;DHT22;19920;52.242;20.940;2023-08-17T08:42:55;29.50;99.90
33594;DHT22;19920;52.242;20.940;2023-08-17T08:45:22;29.60;99.90
33594;DHT22;19920;52.242;20.940;2023-08-17T08:47:49;29.40;99.90
33594;DHT22;19920;52.242;20.940;2023-08-17T08:50:20;29.20;99.90
33594;DHT22;19920;52.242;20.940;2023-08-17T08:52:57;29.30;99.90
33594;DHT22;19920;52.242;20.940;2023-08-17T08:55:24;29.30;99.90
33594;DHT22;19920;52.242;20.940;2023-08-17T08:57:52;29.30;99.90
33594;DHT22;19920;52.242;20.940;2023-08-17T09:00:19;29.20;99.90
33594;DHT22;19920;52.242;20.940;2023-08-17T09:02:45;29.20;99.90
33594;DHT22;19920;52.242;20.940;2023-08-17T09:05:11;29.40;99.90
33594;DHT22;19920;52.242;20.940;2023-08-17T09:07:37;29.50;99.90
33594;DHT22;19920;52.242;20.940;2023-08-17T09:10:04;29.40;99.90
33594;DHT22;19920;52.242;20.940;2023-08-17T09:12:30;29.30;99.90
33594;DHT22;19920;52.242;20.940;2023-08-17T09:14:56;29.30;99.90
33594;DHT22;19920;52.242;20.940;2023-08-17T09:17:26;29.30;99.90
33594;DHT22;19920;52.242;20.940;2023-08-17T09:19:52;29.30;99.90
33594;DHT22;19920;52.242;20.940;2023-08-17T09:22:25;29.40;99.90
33594;DHT22;19920;52.242;20.940;2023-08-17T09:24:51;29.40;99.90
33594;DHT22;19920;52.242;20.940;2023-08-17T09:27:17;29.40;99.90
33594;DHT22;19920;52.242;20.940;2023-08-17T09:29:45;29.50;99.90
33594;DHT22;19920;52.242;20.940;2023-08-17T09:32:11;29.50;99.90
33594;DHT22;19920;52.242;20.940;2023-08-17T09:34:41;29.60;99.90
33594;DHT22;19920;52.242;20.940;2023-08-17T09:37:07;29.70;99.90
33594;DHT22;19920;52.242;20.940;2023-08-17T09:39:32;29.70;99.90
33594;DHT22;19920;52.242;20.940;2023-08-17T09:41:59;29.90;99.90
33594;DHT22;19920;52.242;20.940;2023-08-17T09:44:25;29.80;99.90
33594;DHT22;19920;52.242;20.940;2023-08-17T09:46:51;29.90;99.90
33594;DHT22;19920;52.242;20.940;2023-08-17T09:49:17;29.90;99.90
33594;DHT22;19920;52.242;20.940;2023-08-17T09:51:44;29.90;99.90
33594;DHT22;19920;52.242;20.940;2023-08-17T09:54:23;30.00;99.90
33594;DHT22;19920;52.242;20.940;2023-08-17T09:56:52;30.20;99.90
33594;DHT22;19920;52.242;20.940;2023-08-17T09:59:18;30.30;99.90
33594;DHT22;19920;52.242;20.940;2023-08-17T10:01:47;30.40;99.90
33594;DHT22;19920;52.242;20.940;2023-08-17T10:04:16;30.50;99.90
33594;DHT22;19920;52.242;20.940;2023-08-17T10:06:45;30.60;99.90
33594;DHT22;19920;52.242;20.940;2023-08-17T10:09:13;30.60;99.90
33594;DHT22;19920;52.242;20.940;2023-08-17T10:11:46;30.70;99.90
33594;DHT22;19920;52.242;20.940;2023-08-17T10:14:17;30.70;99.90
33594;DHT22;19920;52.242;20.940;2023-08-17T10:16:49;30.80;99.90
33594;DHT22;19920;52.242;20.940;2023-08-17T10:19:43;30.90;99.90
33594;DHT22;19920;52.242;20.940;2023-08-17T10:22:41;31.10;99.90
33594;DHT22;19920;52.242;20.940;2023-08-17T10:25:08;31.20;99.90
33594;DHT22;19920;52.242;20.940;2023-08-17T10:27:37;31.20;99.90
33594;DHT22;19920;52.242;20.940;2023-08-17T10:30:03;31.30;99.90
33594;DHT22;19920;52.242;20.940;2023-08-17T10:32:29;31.40;99.90
33594;DHT22;19920;52.242;20.940;2023-08-17T10:34:56;31.50;99.90
33594;DHT22;19920;52.242;20.940;2023-08-17T10:37:23;31.70;99.90
33594;DHT22;19920;52.242;20.940;2023-08-17T10:39:50;31.80;99.90
33594;DHT22;19920;52.242;20.940;2023-08-17T10:42:33;32.00;99.90
33594;DHT22;19920;52.242;20.940;2023-08-17T10:44:59;32.10;99.90
33594;DHT22;19920;52.242;20.940;2023-08-17T10:47:31;32.20;99.90
33594;DHT22;19920;52.242;20.940;2023-08-17T10:49:58;32.20;99.90
33594;DHT22;19920;52.242;20.940;2023-08-17T10:52:35;32.20;99.90
33594;DHT22;19920;52.242;20.940;2023-08-17T10:55:05;32.20;99.90
33594;DHT22;19920;52.242;20.940;2023-08-17T10:57:35;32.30;99.90
33594;DHT22;19920;52.242;20.940;2023-08-17T11:00:23;32.40;99.90
33594;DHT22;19920;52.242;20.940;2023-08-17T11:03:05;32.30;99.90
33594;DHT22;19920;52.242;20.940;2023-08-17T11:05:43;32.40;99.90
33594;DHT22;19920;52.242;20.940;2023-08-17T11:08:10;32.40;99.90
33594;DHT22;19920;52.242;20.940;2023-08-17T11:10:37;32.40;99.90
33594;DHT22;19920;52.242;20.940;2023-08-17T11:13:04;32.50;99.90
33594;DHT22;19920;52.242;20.940;2023-08-17T11:15:37;32.50;99.90
33594;DHT22;19920;52.242;20.940;2023-08-17T11:18:05;32.60;99.90
33594;DHT22;19920;52.242;20.940;2023-08-17T11:20:31;32.70;99.90
33594;DHT22;19920;52.242;20.940;2023-08-17T11:22:58;32.70;99.90
33594;DHT22;19920;52.242;20.940;2023-08-17T11:25:26;32.60;99.90
33594;DHT22;19920;52.242;20.940;2023-08-17T11:27:53;32.60;99.90
33594;DHT22;19920;52.242;20.940;2023-08-17T11:30:20;32.80;99.90
33594;DHT22;19920;52.242;20.940;2023-08-17T11:32:45;32.90;99.90
33594;DHT22;19920;52.242;20.940;2023-08-17T11:35:11;33.00;99.90
33594;DHT22;19920;52.242;20.940;2023-08-17T11:37:37;33.00;99.90
33594;DHT22;19920;52.242;20.940;2023-08-17T11:40:02;33.00;99.90
33594;DHT22;19920;52.242;20.940;2023-08-17T11:42:30;33.10;99.90
33594;DHT22;19920;52.242;20.940;2023-08-17T11:44:56;33.10;99.90
33594;DHT22;19920;52.242;20.940;2023-08-17T11:47:22;33.10;99.90
33594;DHT22;19920;52.242;20.940;2023-08-17T11:49:48;33.20;99.90
33594;DHT22;19920;52.242;20.940;2023-08-17T11:52:14;33.20;99.90
33594;DHT22;19920;52.242;20.940;2023-08-17T11:54:41;33.30;99.90
33594;DHT22;19920;52.242;20.940;2023-08-17T11:57:07;33.30;99.90
33594;DHT22;19920;52.242;20.940;2023-08-17T11:59:33;33.20;99.90
33594;DHT22;19920;52.242;20.940;2023-08-17T12:01:59;33.30;99.90
33594;DHT22;19920;52.242;20.940;2023-08-17T12:04:25;33.50;99.90
33594;DHT22;19920;52.242;20.940;2023-08-17T12:06:51;33.40;99.90
33594;DHT22;19920;52.242;20.940;2023-08-17T12:09:18;33.20;99.90
33594;DHT22;19920;52.242;20.940;2023-08-17T12:11:45;33.10;99.90
33594;DHT22;19920;52.242;20.940;2023-08-17T12:14:12;33.20;99.90
33594;DHT22;19920;52.242;20.940;2023-08-17T12:16:50;33.40;99.90
33594;DHT22;19920;52.242;20.940;2023-08-17T12:19:15;33.60;99.90
33594;DHT22;19920;52.242;20.940;2023-08-17T12:21:42;33.80;99.90
33594;DHT22;19920;52.242;20.940;2023-08-17T12:24:09;34.00;99.90
33594;DHT22;19920;52.242;20.940;2023-08-17T12:26:35;34.30;99.90
33594;DHT22;19920;52.242;20.940;2023-08-17T12:29:04;34.50;99.90
33594;DHT22;19920;52.242;20.940;2023-08-17T12:31:30;34.80;99.90
33594;DHT22;19920;52.242;20.940;2023-08-17T12:33:57;34.90;99.90
33594;DHT22;19920;52.242;20.940;2023-08-17T12:36:22;35.00;99.90
33594;DHT22;19920;52.242;20.940;2023-08-17T12:38:48;35.00;99.50
33594;DHT22;19920;52.242;20.940;2023-08-17T12:41:14;34.80;99.00
33594;DHT22;19920;52.242;20.940;2023-08-17T12:43:39;34.60;99.10
33594;DHT22;19920;52.242;20.940;2023-08-17T12:46:05;34.60;99.90
33594;DHT22;19920;52.242;20.940;2023-08-17T12:48:30;34.70;99.90
33594;DHT22;19920;52.242;20.940;2023-08-17T12:50:56;34.70;99.60
33594;DHT22;19920;52.242;20.940;2023-08-17T12:53:22;34.70;99.70
33594;DHT22;19920;52.242;20.940;2023-08-17T12:55:47;34.80;99.10
33594;DHT22;19920;52.242;20.940;2023-08-17T12:58:13;34.70;98.60
33594;DHT22;19920;52.242;20.940;2023-08-17T13:00:39;34.70;99.20
33594;DHT22;19920;52.242;20.940;2023-08-17T13:03:04;34.80;98.90
33594;DHT22;19920;52.242;20.940;2023-08-17T13:05:30;34.90;98.90
33594;DHT22;19920;52.242;20.940;2023-08-17T13:07:55;35.20;98.30
33594;DHT22;19920;52.242;20.940;2023-08-17T13:10:21;35.30;98.20
33594;DHT22;19920;52.242;20.940;2023-08-17T13:12:47;35.40;98.50
33594;DHT22;19920;52.242;20.940;2023-08-17T13:15:13;35.40;98.80
33594;DHT22;19920;52.242;20.940;2023-08-17T13:17:38;35.40;98.90
33594;DHT22;19920;52.242;20.940;2023-08-17T13:20:05;35.30;98.30
33594;DHT22;19920;52.242;20.940;2023-08-17T13:22:32;35.30;97.30
33594;DHT22;19920;52.242;20.940;2023-08-17T13:24:57;35.30;97.20
33594;DHT22;19920;52.242;20.940;2023-08-17T13:27:23;35.00;97.70
33594;DHT22;19920;52.242;20.940;2023-08-17T13:29:49;35.00;97.90
33594;DHT22;19920;52.242;20.940;2023-08-17T13:32:14;35.20;96.90
33594;DHT22;19920;52.242;20.940;2023-08-17T13:34:40;35.40;97.40
33594;DHT22;19920;52.242;20.940;2023-08-17T13:37:05;35.60;96.80
33594;DHT22;19920;52.242;20.940;2023-08-17T13:39:31;35.80;96.70
33594;DHT22;19920;52.242;20.940;2023-08-17T13:41:57;35.60;95.80
33594;DHT22;19920;52.242;20.940;2023-08-17T13:44:23;35.40;96.40
33594;DHT22;19920;52.242;20.940;2023-08-17T13:46:49;35.40;95.80
33594;DHT22;19920;52.242;20.940;2023-08-17T13:49:14;35.50;95.50
33594;DHT22;19920;52.242;20.940;2023-08-17T13:51:40;35.70;96.80
33594;DHT22;19920;52.242;20.940;2023-08-17T13:54:05;36.00;96.00
33594;DHT22;19920;52.242;20.940;2023-08-17T13:56:31;36.20;95.60
33594;DHT22;19920;52.242;20.940;2023-08-17T13:58:57;36.30;95.00
33594;DHT22;19920;52.242;20.940;2023-08-17T14:01:22;36.10;94.80
33594;DHT22;19920;52.242;20.940;2023-08-17T14:03:48;36.30;95.30
33594;DHT22;19920;52.242;20.940;2023-08-17T14:06:13;36.30;94.70
33594;DHT22;19920;52.242;20.940;2023-08-17T14:08:39;36.20;94.10
33594;DHT22;19920;52.242;20.940;2023-08-17T14:11:05;35.80;94.90
33594;DHT22;19920;52.242;20.940;2023-08-17T14:13:31;35.70;94.90
33594;DHT22;19920;52.242;20.940;2023-08-17T14:15:57;35.50;95.20
33594;DHT22;19920;52.242;20.940;2023-08-17T14:18:24;35.40;95.20
33594;DHT22;19920;52.242;20.940;2023-08-17T14:20:51;35.50;95.80
33594;DHT22;19920;52.242;20.940;2023-08-17T14:23:17;35.60;95.30
33594;DHT22;19920;52.242;20.940;2023-08-17T14:25:42;35.90;95.00
33594;DHT22;19920;52.242;20.940;2023-08-17T14:28:08;36.10;95.60
33594;DHT22;19920;52.242;20.940;2023-08-17T14:30:34;36.20;94.50
33594;DHT22;19920;52.242;20.940;2023-08-17T14:32:59;36.50;94.20
33594;DHT22;19920;52.242;20.940;2023-08-17T14:35:26;36.40;94.00
33594;DHT22;19920;52.242;20.940;2023-08-17T14:37:52;36.50;93.60
33594;DHT22;19920;52.242;20.940;2023-08-17T14:40:18;36.60;93.50
33594;DHT22;19920;52.242;20.940;2023-08-17T14:42:44;36.60;93.50
33594;DHT22;19920;52.242;20.940;2023-08-17T14:45:11;36.80;93.30
33594;DHT22;19920;52.242;20.940;2023-08-17T14:47:36;36.90;93.70
33594;DHT22;19920;52.242;20.940;2023-08-17T14:50:02;37.20;92.40
33594;DHT22;19920;52.242;20.940;2023-08-17T14:52:28;37.30;92.10
33594;DHT22;19920;52.242;20.940;2023-08-17T14:54:54;37.60;91.80
33594;DHT22;19920;52.242;20.940;2023-08-17T14:57:20;37.80;90.90
33594;DHT22;19920;52.242;20.940;2023-08-17T14:59:45;38.30;91.50
33594;DHT22;19920;52.242;20.940;2023-08-17T15:02:11;38.40;89.80
33594;DHT22;19920;52.242;20.940;2023-08-17T15:04:36;38.10;89.30
33594;DHT22;19920;52.242;20.940;2023-08-17T15:07:04;38.70;89.20
33594;DHT22;19920;52.242;20.940;2023-08-17T15:09:36;39.40;87.20
33594;DHT22;19920;52.242;20.940;2023-08-17T15:12:01;39.90;84.70
33594;DHT22;19920;52.242;20.940;2023-08-17T15:14:27;39.60;83.90